createdAt,value
2022-09-07T00:03:38.363Z,9.60
2022-09-07T00:08:43.795Z,13.20
2022-09-07T00:13:49.220Z,12.00
2022-09-07T00:18:55.579Z,11.20
2022-09-07T00:23:58.450Z,13.70
2022-09-07T00:29:03.017Z,9.60
2022-09-07T00:34:06.487Z,13.50
2022-09-07T00:39:09.345Z,13.20
2022-09-07T00:44:43.357Z,11.50
2022-09-07T00:49:49.838Z,11.40
2022-09-07T00:54:56.934Z,14.40
2022-09-07T00:59:59.695Z,9.60
2022-09-07T01:05:11.699Z,12.40
2022-09-07T01:10:14.506Z,11.40
2022-09-07T01:15:17.487Z,12.20
2022-09-07T01:20:54.670Z,10.60
2022-09-07T01:26:18.947Z,9.50
2022-09-07T01:32:01.699Z,12.90
2022-09-07T01:37:23.949Z,11.60
2022-09-07T01:42:32.009Z,10.60
2022-09-07T01:47:39.679Z,13.10
2022-09-07T01:53:02.456Z,12.00
2022-09-07T01:58:26.669Z,9.30
2022-09-07T02:04:10.666Z,11.70
2022-09-07T02:09:45.545Z,10.90
2022-09-07T02:14:52.892Z,13.10
2022-09-07T02:20:01.531Z,9.50
2022-09-07T02:25:05.241Z,11.10
2022-09-07T02:30:09.287Z,14.50
2022-09-07T02:35:12.177Z,12.60
2022-09-07T02:40:15.024Z,11.60
2022-09-07T02:45:17.909Z,13.80
2022-09-07T02:50:56.577Z,13.40
2022-09-07T02:56:59.221Z,11.00
2022-09-07T03:02:10.382Z,12.80
2022-09-07T03:07:36.050Z,11.90
2022-09-07T03:12:41.191Z,15.50
2022-09-07T03:17:44.021Z,10.80
2022-09-07T03:22:47.992Z,11.00
2022-09-07T03:27:50.903Z,11.80
2022-09-07T03:32:53.704Z,11.90
2022-09-07T03:37:56.492Z,11.60
2022-09-07T03:42:59.381Z,11.80
2022-09-07T03:48:02.481Z,12.50
2022-09-07T03:53:05.283Z,12.20
2022-09-07T03:58:08.097Z,10.00
2022-09-07T04:03:10.888Z,12.00
2022-09-07T04:08:14.653Z,9.80
2022-09-07T04:13:17.469Z,10.80
2022-09-07T04:18:20.406Z,10.20
2022-09-07T04:23:23.279Z,10.90
2022-09-07T04:28:26.106Z,11.90
2022-09-07T04:33:32.112Z,12.10
2022-09-07T04:38:35.035Z,12.60
2022-09-07T04:43:38.828Z,14.00
2022-09-07T04:48:41.623Z,16.90
2022-09-07T04:53:46.278Z,16.70
2022-09-07T04:58:49.249Z,15.40
2022-09-07T05:03:52.332Z,18.40
2022-09-07T05:08:55.290Z,21.70
2022-09-07T05:14:00.039Z,16.90
2022-09-07T05:19:04.941Z,16.90
2022-09-07T05:24:07.717Z,14.60
2022-09-07T05:34:33.430Z,20.30
2022-09-07T05:39:36.688Z,19.60
2022-09-07T05:49:45.301Z,21.60
2022-09-07T05:54:48.154Z,18.80
2022-09-07T05:59:50.992Z,15.40
2022-09-07T06:04:53.843Z,20.10
2022-09-07T06:15:19.473Z,12.30
2022-09-07T06:20:22.381Z,16.00
2022-09-07T06:25:25.239Z,10.30
2022-09-07T06:30:28.264Z,8.90
2022-09-07T06:35:31.033Z,12.20
2022-09-07T06:40:34.680Z,9.60
2022-09-07T06:45:37.479Z,8.10
2022-09-07T06:50:40.269Z,7.10
2022-09-07T06:55:44.902Z,8.00
2022-09-07T07:00:47.944Z,6.60
2022-09-07T07:05:55.392Z,8.20
2022-09-07T07:11:03.065Z,9.10
2022-09-07T07:16:10.414Z,7.20
2022-09-07T07:21:15.038Z,4.70
2022-09-07T07:26:20.652Z,10.10
2022-09-07T07:31:25.362Z,5.80
2022-09-07T07:36:28.315Z,6.70
2022-09-07T07:46:54.854Z,5.90
2022-09-07T07:57:21.098Z,6.20
2022-09-07T08:02:23.996Z,6.60
2022-09-07T08:07:26.760Z,4.30
2022-09-07T08:12:31.335Z,3.80
2022-09-07T08:17:35.062Z,8.50
2022-09-07T08:22:37.720Z,3.70
2022-09-07T08:27:40.468Z,2.20
2022-09-07T08:32:43.329Z,3.70
2022-09-07T08:37:46.153Z,4.30
2022-09-07T08:43:36.063Z,5.10
2022-09-07T08:48:38.707Z,2.50
2022-09-07T08:53:46.280Z,2.80
2022-09-07T08:58:51.227Z,2.80
2022-09-07T09:09:59.444Z,1.90
2022-09-07T09:15:22.313Z,1.40
2022-09-07T09:20:37.311Z,2.30
2022-09-07T09:25:45.907Z,2.90
2022-09-07T09:30:48.860Z,2.20
2022-09-07T09:36:00.041Z,1.10
2022-09-07T09:41:14.860Z,4.00
2022-09-07T09:46:33.594Z,2.00
2022-09-07T09:57:05.010Z,1.30
2022-09-07T10:07:56.878Z,3.30
2022-09-07T10:12:59.616Z,1.90
2022-09-07T10:18:06.171Z,1.50
2022-09-07T10:23:20.606Z,1.40
2022-09-07T10:28:24.832Z,1.40
2022-09-07T10:34:25.632Z,2.80
2022-09-07T10:39:17.787Z,1.30
2022-09-07T10:44:39.200Z,3.80
2022-09-07T10:55:28.049Z,3.50
2022-09-07T11:00:39.556Z,2.10
2022-09-07T11:05:48.390Z,1.40
2022-09-07T11:11:02.703Z,2.20
2022-09-07T11:16:08.760Z,2.90
2022-09-07T11:21:56.073Z,4.10
2022-09-07T11:26:53.494Z,3.70
2022-09-07T11:32:00.417Z,2.10
2022-09-07T11:37:07.178Z,3.60
2022-09-07T11:42:50.087Z,2.30
2022-09-07T11:48:19.532Z,2.80
2022-09-07T11:53:26.834Z,2.80
2022-09-07T11:58:35.733Z,1.60
2022-09-07T12:04:02.217Z,1.70
2022-09-07T12:09:11.294Z,1.80
2022-09-07T12:14:25.616Z,2.20
2022-09-07T12:19:28.309Z,4.40
2022-09-07T12:24:51.501Z,4.00
2022-09-07T12:34:59.571Z,3.10
2022-09-07T12:40:45.928Z,2.50
2022-09-07T12:45:51.470Z,2.00
2022-09-07T13:08:49.468Z,2.30
2022-09-07T13:14:16.166Z,1.80
2022-09-07T13:19:47.097Z,2.80
2022-09-07T13:24:52.712Z,2.00
2022-09-07T13:30:23.131Z,1.80
2022-09-07T13:35:26.277Z,1.60
2022-09-07T13:40:37.761Z,1.80
2022-09-07T13:45:49.594Z,3.10
2022-09-07T13:51:32.022Z,2.30
2022-09-07T13:56:43.563Z,2.90
2022-09-07T14:01:47.369Z,1.30
2022-09-07T14:06:50.390Z,1.30
2022-09-07T14:11:54.420Z,3.40
2022-09-07T14:17:08.478Z,2.20
2022-09-07T14:22:41.878Z,3.90
2022-09-07T14:27:46.687Z,2.20
2022-09-07T14:32:54.585Z,3.60
2022-09-07T14:38:06.165Z,1.30
2022-09-07T14:43:28.483Z,2.50
2022-09-07T14:48:32.538Z,1.90
2022-09-07T14:53:38.112Z,3.80
2022-09-07T14:58:40.827Z,4.80
2022-09-07T15:03:46.610Z,3.90
2022-09-07T15:08:49.282Z,3.20
2022-09-07T15:14:01.894Z,2.50
2022-09-07T15:19:16.594Z,3.30
2022-09-07T15:24:19.232Z,3.40
2022-09-07T15:29:22.340Z,2.90
2022-09-07T15:34:25.907Z,2.20
2022-09-07T15:39:30.152Z,2.70
2022-09-07T15:44:33.244Z,3.20
2022-09-07T15:49:36.146Z,4.00
2022-09-07T15:54:39.822Z,5.20
2022-09-07T15:59:42.814Z,2.90
2022-09-07T16:04:45.649Z,4.10
2022-09-07T16:09:48.897Z,6.60
2022-09-07T16:14:56.388Z,4.80
2022-09-07T16:20:02.111Z,4.10
2022-09-07T16:25:05.723Z,3.10
2022-09-07T16:30:09.784Z,4.30
2022-09-07T16:35:12.414Z,3.50
2022-09-07T16:40:15.336Z,6.50
2022-09-07T16:50:56.591Z,4.90
2022-09-07T16:56:06.821Z,3.40
2022-09-07T17:01:15.004Z,4.50
2022-09-07T17:06:20.429Z,7.20
2022-09-07T17:11:26.691Z,4.40
2022-09-07T17:16:32.195Z,3.70
2022-09-07T17:21:37.707Z,4.80
2022-09-07T17:26:42.293Z,5.60
2022-09-07T17:37:09.224Z,4.90
2022-09-07T17:42:12.169Z,4.70
2022-09-07T17:47:14.884Z,7.00
2022-09-07T17:52:17.562Z,7.60
2022-09-07T17:57:20.226Z,6.10
2022-09-07T18:02:23.094Z,6.80
2022-09-07T18:07:25.877Z,4.90
2022-09-07T18:12:28.562Z,6.00
2022-09-07T18:17:31.404Z,7.50
2022-09-07T18:22:34.583Z,11.70
2022-09-07T18:27:39.476Z,7.70
2022-09-07T18:32:42.355Z,7.60
2022-09-07T18:37:45.029Z,6.30
2022-09-07T18:42:48.245Z,6.90
2022-09-07T18:47:50.935Z,7.30
2022-09-07T18:52:53.935Z,7.70
2022-09-07T18:57:57.676Z,12.30
2022-09-07T19:03:00.461Z,7.70
2022-09-07T19:08:04.410Z,7.80
2022-09-07T19:13:07.076Z,7.50
2022-09-07T19:18:10.614Z,12.10
2022-09-07T19:23:13.461Z,14.10
2022-09-07T19:28:16.444Z,10.00
2022-09-07T19:33:19.190Z,6.60
2022-09-07T19:38:21.910Z,12.20
2022-09-07T19:43:24.730Z,7.20
2022-09-07T19:48:27.592Z,9.90
2022-09-07T19:53:34.904Z,10.50
2022-09-07T19:58:39.966Z,10.60
2022-09-07T20:03:43.159Z,8.70
2022-09-07T20:08:46.059Z,8.60
2022-09-07T20:13:49.235Z,12.50
2022-09-07T20:18:51.955Z,9.80
2022-09-07T20:23:54.647Z,11.20
2022-09-07T20:29:16.437Z,8.30
2022-09-07T20:34:20.148Z,7.40
2022-09-07T20:39:23.787Z,8.80
2022-09-07T20:44:27.052Z,11.60
2022-09-07T20:49:30.225Z,9.20
2022-09-07T20:54:33.898Z,12.60
2022-09-07T20:59:36.613Z,11.30
2022-09-07T21:04:39.312Z,11.00
2022-09-07T21:09:42.039Z,8.90
2022-09-07T21:14:46.106Z,11.30
2022-09-07T21:19:48.846Z,12.50
2022-09-07T21:24:51.460Z,10.80
2022-09-07T21:29:54.108Z,12.30
2022-09-07T21:34:56.851Z,11.10
2022-09-07T21:39:59.554Z,11.50
2022-09-07T21:45:02.403Z,12.50
2022-09-07T21:50:05.784Z,8.60
2022-09-07T21:55:08.757Z,9.30
2022-09-07T22:00:12.268Z,10.80
2022-09-07T22:05:15.461Z,15.30
2022-09-07T22:10:18.129Z,10.70
2022-09-07T22:15:20.778Z,11.30
2022-09-07T22:20:23.405Z,9.50
2022-09-07T22:25:26.514Z,8.00
2022-09-07T22:30:29.162Z,8.00
2022-09-07T22:35:31.849Z,12.50
2022-09-07T22:40:34.568Z,11.90
2022-09-07T22:45:37.340Z,9.10
2022-09-07T22:50:40.014Z,9.40
2022-09-07T22:55:42.794Z,8.10
2022-09-07T23:00:46.921Z,12.50
2022-09-07T23:05:49.638Z,9.50
2022-09-07T23:10:53.048Z,9.40
2022-09-07T23:15:55.804Z,10.40
2022-09-07T23:21:00.551Z,8.00
2022-09-07T23:26:03.855Z,11.80
2022-09-07T23:31:10.306Z,10.10
2022-09-07T23:36:13.546Z,6.30
2022-09-07T23:41:19.592Z,8.00
2022-09-07T23:46:22.591Z,6.80
2022-09-07T23:51:25.452Z,10.00
2022-09-07T23:56:28.762Z,9.20
